Ellsworth, NE (69340)

12:22 PM MDT on October 01, 2014 (GMT -0600)
Alliance Municipal | Change Station
CLOSE
Current Station
Airport
Location: Alliance,
Elevation: 3930 ft
Nearby Weather Stations

Elev 3930 ft 42.06 °N, 102.80 °W | Updated 29 minutes ago

Partly Cloudy
Partly Cloudy
60 °F
Feels Like 60 °F
N
23
Wind Variable Wind from West
Gusts 32 mph

Today
High -- | Low -- °F
--% Chance of Precip.
Yesterday
High -- | Low -- °F
Precip. -- in
6:46 AM 6:31 PM
Waxing Crescent, 50% visible
Pressure 29.65 in
Visibility 10.0 miles
Clouds Clear
Dew Point 45 °F
Humidity 57%
Rainfall 0.07 in
Snow Depth Not available.
UV 6 out of 12
Pollen 3.60 out of 12
Air Quality Not available.
Flu Activity Not available.
METAR KAIA 301753Z AUTO 27020G28KT 10SM CLR 16/07 A2972 RMK AO2 PK WND 27030/1737 SLP038 60007 T01560072 10156 20100 51010

More Conditions Fewer Conditions

Pressure 29.65 in
Visibility 10.0 miles
Clouds Clear
Dew Point 45 °F
Humidity 57%
Rainfall 0.07 in
Snow Depth Not available.
UV 6 out of 12
Pollen 3.60 out of 12
Air Quality Not available.
Flu Activity Not available.
METAR KAIA 301753Z AUTO 27020G28KT 10SM CLR 16/07 A2972 RMK AO2 PK WND 27030/1737 SLP038 60007 T01560072 10156 20100 51010

More Conditions Fewer Conditions

10-Day Weather Forecast

Almanac

Astronomy

Oct. 01, 2014 Rise Set
Actual Time 6:46 AM MDT 6:31 PM MDT
Civil Twilight 6:18 AM MDT 6:59 PM MDT
Nautical Twilight 5:46 AM MDT 7:31 PM MDT
Astronomical Twilight 5:13 AM MDT 8:04 PM MDT
Moon 1:54 PM MDT No Moon Set
Length of Visible Light 12h 40m
Length of Day
11h 44m
Tomorrow will be 2m 49s shorter.
Waxing Crescent, 50% of the Moon is Illuminated
Today
Waxing Crescent
Oct 1
First Quarter
Oct 8
Full
Oct 15
Last Quarter
Oct 23
New

Today's Extremes

State Highs State Lows

Community

WunderPhotos

Upload Photos

1,758,008 photos uploaded!

WunderBlogs® & News

By Dr. Jeff Masters
Director of Meteorology, Weather Underground
By Kari Strenfel
Meteorologist, Weather Underground
By Christopher C. Burt
Weather Historian, Weather Underground
October 1, 2014
October 1, 2014
October 1, 2014

Nearby

Snow Depth

Station Depth Elevation
No new snow has been reported.

Earthquake Activity

City Distance Mag. Time & Date
No recent earthquake activity has been reported nearby.
Minimum magnitude displayed is 2.5.

Coastal Water Temperatures

Place Temperature
No Stations Reporting

Nearby Weather Stations